KONP

Newport Municipal Airport

Newport, Oregon, USA
KONP 210520Z 2106/2206 36013G20KT P6SM SKC FM210700 01012KT P6SM SKC FM210800 01007KT P6SM SKC FM210900 01004KT P6SM FEW008 SCT012 FM211700 35010KT P6SM FEW015 FM211900 34015G25KT P6SM FEW025
Issued Valid From Valid To
Jul-21 @ 05:20 UTC
(6 hours ago)
Jul-21 @ 06:00 UTC
(5 hours ago)
Jul-22 @ 06:00 UTC
(in 19 hours)
Expired Click to View Jul-21 @ 06:00 to Jul-21 @ 07:00
KONP 210520Z 2106/2206 36013G20KT P6SM SKC
Wind Visibility Clouds
360° at 13 knots
 Gusting to 20 knots
Greater than 6 miles
  • Clear skies
Expired Click to View Jul-21 @ 07:00 to Jul-21 @ 08:00
FM210700 01012KT P6SM SKC
Wind Visibility Clouds
10° at 12 knots Greater than 6 miles
  • Clear skies
Expired Click to View Jul-21 @ 08:00 to Jul-21 @ 09:00
FM210800 01007KT P6SM SKC
Wind Visibility Clouds
10° at 7 knots Greater than 6 miles
  • Clear skies
From Jul-21 @ 09:00 to Jul-21 @ 17:00
FM210900 01004KT P6SM FEW008 SCT012
Wind Visibility Clouds
10° at 4 knots Greater than 6 miles
  • Few at 800' AGL
  • Scattered at 1,200' AGL
From Jul-21 @ 17:00 to Jul-21 @ 19:00
FM211700 35010KT P6SM FEW015
Wind Visibility Clouds
350° at 10 knots Greater than 6 miles
  • Few at 1,500' AGL
From Jul-21 @ 19:00 to Jul-22 @ 06:00
FM211900 34015G25KT P6SM FEW025
Wind Visibility Clouds
340° at 15 knots
 Gusting to 25 knots
Greater than 6 miles
  • Few at 2,500' AGL
KONP 210520Z 2106/2206 36013G20KT P6SM SKC FM210700 01012KT P6SM SKC FM210800 01007KT P6SM SKC FM210900 01004KT P6SM FEW008 SCT012 FM211700 35010KT P6SM FEW015 FM211900 34015G25KT P6SM FEW025
Issued Jul-21 @ 05:20 UTC
(6 hours ago)
Valid From Jul-21 @ 06:00 UTC
(5 hours ago)
Valid To Jul-22 @ 06:00 UTC
(in 19 hours)
Jul-21 @ 06:00 - Jul-21 @ 07:00
Wind Visibility
360° at 13 knots
 Gusting to 20 knots
Greater than 6 miles
Clouds
  • Clear skies
Jul-21 @ 07:00 - Jul-21 @ 08:00
Wind Visibility
10° at 12 knots Greater than 6 miles
Clouds
  • Clear skies
Jul-21 @ 08:00 - Jul-21 @ 09:00
Wind Visibility
10° at 7 knots Greater than 6 miles
Clouds
  • Clear skies
From Jul-21 @ 09:00 - Jul-21 @ 17:00
Wind Visibility
10° at 4 knots Greater than 6 miles
Clouds
  • Few at 800' AGL
  • Scattered at 1,200' AGL
From Jul-21 @ 17:00 - Jul-21 @ 19:00
Wind Visibility
350° at 10 knots Greater than 6 miles
Clouds
  • Few at 1,500' AGL
From Jul-21 @ 19:00 - Jul-22 @ 06:00
Wind Visibility
340° at 15 knots
 Gusting to 25 knots
Greater than 6 miles
Clouds
  • Few at 2,500' AGL